Time;durP1;ratioP1;P1;durP2;ratioP2;P2;SDS_P1;SDS_P2;PMS_P1;PMS_P2;Temp;Humidity;BMP_temperature;BMP_pressure;BME280_temperature;BME280_humidity;BME280_pressure;Samples;Min_cycle;Max_cycle;Signal;HPM_P1;HPM_P2
2022/09/08 04:30:07;;;;;;;;;4.00;1.00;;;;;;;;6122159;22;46387;31
2022/09/08 04:32:33;;;;;;;;;4.33;2.67;;;;;;;;4996869;28;45269;-52
2022/09/08 04:34:59;;;;;;;;;3.00;2.00;;;;;;;;4998100;28;45308;-52
2022/09/08 04:37:24;;;;;;;;;2.33;2.33;;;;;;;;4997987;28;45282;-53
2022/09/08 04:39:50;;;;;;;;;3.00;3.00;;;;;;;;4998460;28;46203;-51
2022/09/08 04:42:15;;;;;;;;;2.00;2.00;;;;;;;;4997897;28;45509;-54
2022/09/08 04:44:40;;;;;;;;;4.67;2.33;;;;;;;;4996902;28;45248;-52
2022/09/08 04:47:06;;;;;;;;;1.67;1.33;;;;;;;;4996490;28;45536;-51
2022/09/08 04:49:31;;;;;;;;;1.00;1.00;;;;;;;;4995717;28;45797;-61
2022/09/08 04:51:56;;;;;;;;;3.00;2.00;;;;;;;;4996984;28;45794;-61
2022/09/08 04:54:22;;;;;;;;;2.00;1.00;;;;;;;;4998494;28;45698;-61
2022/09/08 04:56:47;;;;;;;;;2.00;1.67;;;;;;;;4996055;28;45462;-61
2022/09/08 04:59:13;;;;;;;;;3.33;3.33;;;;;;;;4995457;28;46149;-61
2022/09/08 05:01:38;;;;;;;;;6.00;3.00;;;;;;;;4998919;28;45516;-61
2022/09/08 05:04:03;;;;;;;;;3.00;3.00;;;;;;;;4997427;28;45300;-61
2022/09/08 05:06:30;;;;;;;;;3.67;3.00;;;;;;;;4996490;28;45620;-61
2022/09/08 05:08:56;;;;;;;;;2.00;2.00;;;;;;;;4986054;28;46945;-61
2022/09/08 05:11:23;;;;;;;;;2.00;1.00;;;;;;;;4991079;28;45418;-61
2022/09/08 05:13:49;;;;;;;;;6.00;2.33;;;;;;;;4994166;28;45336;-61
2022/09/08 05:16:18;;;;;;;;;3.00;2.00;;;;;;;;4993074;28;45427;-61
2022/09/08 05:18:51;;;;;;;;;4.67;2.00;;;;;;;;4992830;28;45533;-61
2022/09/08 05:21:16;;;;;;;;;3.00;3.00;;;;;;;;4986689;28;45926;-61
2022/09/08 05:23:42;;;;;;;;;2.33;2.33;;;;;;;;4993522;28;45438;-61
2022/09/08 05:26:09;;;;;;;;;3.00;1.00;;;;;;;;4997021;28;45477;-61
2022/09/08 05:28:35;;;;;;;;;2.00;2.00;;;;;;;;4996769;28;46268;-61
2022/09/08 05:31:01;;;;;;;;;2.00;2.00;;;;;;;;4989651;28;45418;-61
2022/09/08 05:33:26;;;;;;;;;3.00;2.33;;;;;;;;4999936;28;45629;-61
2022/09/08 05:35:52;;;;;;;;;4.00;2.00;;;;;;;;5001866;28;45289;-61
2022/09/08 05:38:18;;;;;;;;;3.00;3.00;;;;;;;;5000081;28;46181;-61
2022/09/08 05:40:43;;;;;;;;;0.33;0.33;;;;;;;;5000034;28;45158;-61
2022/09/08 05:43:09;;;;;;;;;5.67;2.00;;;;;;;;5001025;28;45558;-61
2022/09/08 05:45:34;;;;;;;;;3.00;3.00;;;;;;;;5001323;28;45381;-61
2022/09/08 05:48:00;;;;;;;;;5.00;3.00;;;;;;;;4994137;28;45424;-61
2022/09/08 05:50:25;;;;;;;;;3.33;3.00;;;;;;;;5001075;28;45439;-61
2022/09/08 05:52:50;;;;;;;;;0.00;0.00;;;;;;;;5000928;28;45346;-61
2022/09/08 05:55:17;;;;;;;;;3.33;2.33;;;;;;;;4999987;28;45384;-61
2022/09/08 05:57:42;;;;;;;;;2.67;2.67;;;;;;;;4997854;28;45971;-61
2022/09/08 06:00:08;;;;;;;;;2.00;2.00;;;;;;;;4994107;28;45430;-61
2022/09/08 06:02:33;;;;;;;;;3.67;2.33;;;;;;;;4991353;28;45351;-61
2022/09/08 06:04:58;;;;;;;;;3.67;2.00;;;;;;;;5000108;28;45393;-61
2022/09/08 06:07:23;;;;;;;;;5.00;2.00;;;;;;;;5000011;28;45352;-61
2022/09/08 06:09:48;;;;;;;;;5.00;3.00;;;;;;;;4995918;28;45435;-61
2022/09/08 06:12:15;;;;;;;;;4.33;3.67;;;;;;;;4998289;28;45566;-61
2022/09/08 06:14:40;;;;;;;;;4.67;2.33;;;;;;;;4999960;28;45526;-61
2022/09/08 06:17:06;;;;;;;;;2.33;2.00;;;;;;;;5000947;28;45403;-61
2022/09/08 06:19:31;;;;;;;;;5.00;3.00;;;;;;;;4999922;28;45308;-61
2022/09/08 06:21:57;;;;;;;;;2.00;2.00;;;;;;;;4994716;28;45246;-61
2022/09/08 06:24:22;;;;;;;;;2.00;2.00;;;;;;;;4998033;28;45469;-60
2022/09/08 06:26:58;;;;;;;;;6.67;3.67;;;;;;;;5000641;28;45403;-61
2022/09/08 06:29:23;;;;;;;;;3.00;3.00;;;;;;;;4991672;28;45566;-61
2022/09/08 06:31:51;;;;;;;;;5.67;3.00;;;;;;;;4993690;28;45558;-61
2022/09/08 06:34:39;;;;;;;;;3.67;2.67;;;;;;;;4991070;28;45633;-60
2022/09/08 06:37:07;;;;;;;;;3.33;3.00;;;;;;;;4995349;28;46350;-60
2022/09/08 06:39:40;;;;;;;;;1.00;1.00;;;;;;;;4997179;28;45562;-60
2022/09/08 06:42:10;;;;;;;;;5.75;3.00;;;;;;;;4994652;28;45417;-60
2022/09/08 06:44:37;;;;;;;;;4.00;2.25;;;;;;;;4994712;28;45530;-61
2022/09/08 06:47:09;;;;;;;;;1.00;1.00;;;;;;;;4997729;28;46165;-61
2022/09/08 06:49:34;;;;;;;;;2.25;2.00;;;;;;;;4999594;28;45344;-60
2022/09/08 06:52:32;;;;;;;;;3.25;1.75;;;;;;;;4996867;28;45462;-62
2022/09/08 06:55:15;;;;;;;;;3.00;1.75;;;;;;;;4960037;28;45504;-61
2022/09/08 06:57:59;;;;;;;;;4.50;1.75;;;;;;;;4992851;28;45546;-60
2022/09/08 07:00:28;;;;;;;;;4.00;3.00;;;;;;;;4997448;28;45491;-62
2022/09/08 07:03:05;;;;;;;;;2.50;2.50;;;;;;;;4995014;28;45626;-62
2022/09/08 07:05:33;;;;;;;;;3.75;3.75;;;;;;;;4996756;28;45480;-61
2022/09/08 07:08:03;;;;;;;;;6.75;3.25;;;;;;;;4996597;28;46083;-61
2022/09/08 07:10:36;;;;;;;;;3.75;3.00;;;;;;;;4997313;28;45486;-61
2022/09/08 07:13:24;;;;;;;;;5.00;4.25;;;;;;;;4998251;28;46012;-61
2022/09/08 07:15:52;;;;;;;;;4.00;3.00;;;;;;;;4997610;28;45316;-61
2022/09/08 07:18:17;;;;;;;;;6.00;3.00;;;;;;;;4992655;28;45443;-61
2022/09/08 07:20:43;;;;;;;;;3.00;2.00;;;;;;;;4997419;28;45388;-61
2022/09/08 07:23:18;;;;;;;;;6.50;3.75;;;;;;;;4997838;28;45249;-61
2022/09/08 07:25:54;;;;;;;;;6.00;4.00;;;;;;;;4994496;28;45388;-61
2022/09/08 07:28:20;;;;;;;;;6.00;3.25;;;;;;;;4996930;28;45410;-61
2022/09/08 07:30:49;;;;;;;;;6.33;3.67;;;;;;;;4996788;28;45463;-61
2022/09/08 07:33:22;;;;;;;;;5.33;4.67;;;;;;;;4991040;28;45861;-60
2022/09/08 07:35:55;;;;;;;;;3.00;3.00;;;;;;;;5008777;28;45858;-60
2022/09/08 07:38:39;;;;;;;;;4.00;3.33;;;;;;;;4996842;28;45522;-61
2022/09/08 07:41:07;;;;;;;;;3.33;3.33;;;;;;;;4995868;28;45522;-61
2022/09/08 07:43:32;;;;;;;;;4.33;4.00;;;;;;;;4996598;28;45444;-61
2022/09/08 07:46:08;;;;;;;;;5.00;3.00;;;;;;;;4991424;28;45471;-61
2022/09/08 07:48:43;;;;;;;;;4.33;3.00;;;;;;;;4998891;28;46595;-61
2022/09/08 07:51:10;;;;;;;;;2.75;2.75;;;;;;;;4995487;28;45352;-61
2022/09/08 07:53:42;;;;;;;;;3.67;3.00;;;;;;;;4998249;28;46175;-61
2022/09/08 07:56:21;;;;;;;;;4.25;4.25;;;;;;;;4998272;28;45302;-61
2022/09/08 07:59:05;;;;;;;;;8.67;5.33;;;;;;;;4994024;28;48314;-61
2022/09/08 08:01:33;;;;;;;;;6.33;5.00;;;;;;;;4993443;28;45467;-61
2022/09/08 08:04:12;;;;;;;;;5.33;3.67;;;;;;;;5012721;28;45410;-61
2022/09/08 08:06:38;;;;;;;;;3.33;3.33;;;;;;;;4995356;28;46393;-61
2022/09/08 08:09:09;;;;;;;;;5.33;3.00;;;;;;;;4995960;28;45777;-61
2022/09/08 08:11:52;;;;;;;;;8.00;5.00;;;;;;;;4994825;28;45973;-61
2022/09/08 08:14:30;;;;;;;;;5.00;4.67;;;;;;;;4991363;28;45403;-61
2022/09/08 08:17:15;;;;;;;;;7.67;5.00;;;;;;;;4996392;28;45327;-61
2022/09/08 08:20:04;;;;;;;;;3.00;3.00;;;;;;;;4997359;28;45443;-61
2022/09/08 08:22:52;;;;;;;;;7.67;2.67;;;;;;;;4978263;28;45490;-61
2022/09/08 08:25:25;;;;;;;;;5.33;3.33;;;;;;;;4995097;28;45708;-61
2022/09/08 08:27:56;;;;;;;;;4.00;2.67;;;;;;;;4997494;28;45423;-61
2022/09/08 08:30:23;;;;;;;;;7.67;2.33;;;;;;;;4996628;28;45852;-61
2022/09/08 08:33:08;;;;;;;;;4.00;4.00;;;;;;;;4996161;28;45577;-60
2022/09/08 08:35:49;;;;;;;;;4.33;4.33;;;;;;;;4996513;28;45617;-61
2022/09/08 08:38:17;;;;;;;;;7.67;3.67;;;;;;;;4994868;28;45762;-61
2022/09/08 08:40:53;;;;;;;;;5.00;4.00;;;;;;;;4995042;28;46179;-60
2022/09/08 08:43:24;;;;;;;;;3.67;3.00;;;;;;;;4995804;28;45427;-61
2022/09/08 08:46:08;;;;;;;;;4.00;2.00;;;;;;;;4998115;28;45380;-61
2022/09/08 08:48:44;;;;;;;;;5.50;2.50;;;;;;;;4998399;28;45162;-61
2022/09/08 08:51:16;;;;;;;;;2.00;2.00;;;;;;;;4997460;28;46334;-61
2022/09/08 08:54:08;;;;;;;;;4.00;2.33;;;;;;;;4997398;28;45451;-60
2022/09/08 08:56:36;;;;;;;;;3.67;2.67;;;;;;;;4975061;28;45549;-61
2022/09/08 08:59:04;;;;;;;;;3.25;2.75;;;;;;;;4996902;28;45546;-60
2022/09/08 09:01:48;;;;;;;;;6.33;3.00;;;;;;;;4994706;28;46166;-61
2022/09/08 09:04:32;;;;;;;;;3.50;2.50;;;;;;;;4997546;28;45742;-61
2022/09/08 09:07:16;;;;;;;;;3.75;3.00;;;;;;;;5001681;28;45467;-61
2022/09/08 09:10:04;;;;;;;;;1.00;1.00;;;;;;;;5000603;28;45502;-61
2022/09/08 09:12:42;;;;;;;;;3.75;2.00;;;;;;;;5001042;28;46304;-61
2022/09/08 09:15:07;;;;;;;;;3.67;3.33;;;;;;;;4996956;28;45366;-61
2022/09/08 09:17:32;;;;;;;;;5.75;3.25;;;;;;;;4999007;28;45593;-61
2022/09/08 09:20:00;;;;;;;;;4.00;1.00;;;;;;;;4998789;28;45309;-61
2022/09/08 09:22:36;;;;;;;;;4.67;3.00;;;;;;;;4998970;28;47346;-61
2022/09/08 09:25:13;;;;;;;;;2.67;2.67;;;;;;;;4997755;28;45339;-61
2022/09/08 09:27:38;;;;;;;;;4.00;2.00;;;;;;;;5000072;28;45436;-61
2022/09/08 09:30:06;;;;;;;;;5.33;3.00;;;;;;;;4998630;28;45383;-61
2022/09/08 09:32:50;;;;;;;;;5.00;3.00;;;;;;;;5000313;28;46083;-61
2022/09/08 09:35:25;;;;;;;;;3.67;3.67;;;;;;;;4999931;28;45328;-61
2022/09/08 09:38:04;;;;;;;;;2.00;2.00;;;;;;;;5001615;28;45309;-61
2022/09/08 09:40:29;;;;;;;;;4.00;3.00;;;;;;;;4990945;28;45292;-61
2022/09/08 09:43:04;;;;;;;;;4.50;3.25;;;;;;;;5000199;28;46177;-61
2022/09/08 09:45:35;;;;;;;;;2.00;2.00;;;;;;;;5001090;28;45387;-61
2022/09/08 09:48:10;;;;;;;;;2.00;2.00;;;;;;;;5000489;28;45318;-61
2022/09/08 09:50:54;;;;;;;;;3.00;3.00;;;;;;;;4993064;28;45399;-61
2022/09/08 09:53:31;;;;;;;;;6.00;4.00;;;;;;;;4990214;28;46462;-61
2022/09/08 09:56:02;;;;;;;;;3.00;2.00;;;;;;;;4998606;28;45341;-61
2022/09/08 09:58:28;;;;;;;;;6.25;3.50;;;;;;;;5000726;28;45360;-61
2022/09/08 10:01:09;;;;;;;;;2.75;2.75;;;;;;;;4998750;28;45491;-60
2022/09/08 10:03:52;;;;;;;;;2.00;2.00;;;;;;;;5001151;28;45394;-60
2022/09/08 10:06:44;;;;;;;;;3.00;3.00;;;;;;;;5000156;28;45450;-61
2022/09/08 10:09:47;;;;;;;;;2.75;2.75;;;;;;;;4992027;28;45438;-60
2022/09/08 10:12:15;;;;;;;;;1.50;1.50;;;;;;;;4893163;28;45716;-61
2022/09/08 10:14:50;;;;;;;;;3.75;3.00;;;;;;;;4901293;29;45542;-60
2022/09/08 10:17:30;;;;;;;;;2.75;2.00;;;;;;;;4954304;28;45496;-62
2022/09/08 10:20:19;;;;;;;;;4.00;2.00;;;;;;;;5000644;28;45253;-61
2022/09/08 10:22:53;;;;;;;;;2.50;1.75;;;;;;;;4988538;28;45631;-61
2022/09/08 10:25:18;;;;;;;;;2.75;1.50;;;;;;;;4999317;28;46387;-61
2022/09/08 10:27:46;;;;;;;;;2.75;2.00;;;;;;;;5000188;28;45369;-62
2022/09/08 10:30:30;;;;;;;;;3.25;2.75;;;;;;;;4999825;28;45644;-61
2022/09/08 10:33:13;;;;;;;;;4.00;1.75;;;;;;;;4998536;28;45388;-62
2022/09/08 10:35:47;;;;;;;;;0.00;0.00;;;;;;;;5000650;28;45331;-62
2022/09/08 10:38:26;;;;;;;;;2.25;2.00;;;;;;;;4999982;28;45225;-61
2022/09/08 10:40:54;;;;;;;;;4.75;2.00;;;;;;;;4998283;28;45522;-60
2022/09/08 10:43:22;;;;;;;;;2.50;2.00;;;;;;;;4997883;28;46026;-61
2022/09/08 10:45:50;;;;;;;;;1.75;1.75;;;;;;;;4999873;28;46769;-61
2022/09/08 10:48:21;;;;;;;;;2.50;1.25;;;;;;;;4988091;28;45355;-62
2022/09/08 10:50:51;;;;;;;;;2.25;2.25;;;;;;;;4999702;28;45506;-61
2022/09/08 10:53:19;;;;;;;;;4.00;1.75;;;;;;;;4998889;28;45458;-62
2022/09/08 10:56:03;;;;;;;;;1.75;1.75;;;;;;;;4998210;28;46422;-63
2022/09/08 10:58:28;;;;;;;;;1.75;1.75;;;;;;;;4999528;28;45503;-62
2022/09/08 11:01:05;;;;;;;;;5.00;1.00;;;;;;;;4998496;28;45278;-62
2022/09/08 11:03:33;;;;;;;;;2.25;1.00;;;;;;;;4992437;28;45444;-61
2022/09/08 11:06:05;;;;;;;;;0.75;0.75;;;;;;;;4999060;28;45353;-62
2022/09/08 11:08:34;;;;;;;;;0.75;0.75;;;;;;;;4997637;28;45425;-61
2022/09/08 11:11:11;;;;;;;;;1.25;1.25;;;;;;;;4998229;28;45247;-62
2022/09/08 11:13:47;;;;;;;;;3.00;1.25;;;;;;;;4997336;28;45311;-61
2022/09/08 11:16:15;;;;;;;;;1.00;1.00;;;;;;;;4999660;28;45682;-62
2022/09/08 11:18:51;;;;;;;;;2.00;2.00;;;;;;;;4997453;28;45220;-61
2022/09/08 11:21:30;;;;;;;;;2.50;2.00;;;;;;;;4997498;28;45235;-61
2022/09/08 11:23:58;;;;;;;;;2.75;1.75;;;;;;;;4999894;28;45335;-61
2022/09/08 11:26:42;;;;;;;;;1.25;1.25;;;;;;;;4998546;28;46202;-62
2022/09/08 11:29:14;;;;;;;;;0.75;0.75;;;;;;;;4997234;28;45478;-61
2022/09/08 11:31:47;;;;;;;;;1.00;1.00;;;;;;;;4997322;28;45216;-61
2022/09/08 11:34:20;;;;;;;;;2.50;1.00;;;;;;;;4999554;28;45298;-61
2022/09/08 11:36:54;;;;;;;;;2.25;2.00;;;;;;;;4998879;28;46851;-61
2022/09/08 11:39:44;;;;;;;;;0.60;0.60;;;;;;;;4997272;28;45455;-61
2022/09/08 11:42:28;;;;;;;;;0.50;0.50;;;;;;;;4989213;28;45379;-62
2022/09/08 11:45:01;;;;;;;;;2.00;0.00;;;;;;;;5013509;28;45386;-61
2022/09/08 11:47:36;;;;;;;;;0.75;0.75;;;;;;;;4998842;28;45522;-61
2022/09/08 11:50:20;;;;;;;;;0.20;0.20;;;;;;;;4999188;28;45368;-61
2022/09/08 11:52:51;;;;;;;;;1.50;0.75;;;;;;;;4997136;28;45463;-62
2022/09/08 11:55:19;;;;;;;;;0.00;0.00;;;;;;;;4998089;28;45452;-62
2022/09/08 11:58:03;;;;;;;;;0.75;0.75;;;;;;;;4998559;28;46390;-62
2022/09/08 12:00:48;;;;;;;;;0.60;0.20;;;;;;;;4996308;28;45390;-61
2022/09/08 12:03:19;;;;;;;;;0.00;0.00;;;;;;;;4997582;28;45352;-61
2022/09/08 12:05:50;;;;;;;;;0.00;0.00;;;;;;;;4998074;28;45314;-61
2022/09/08 12:08:18;;;;;;;;;1.50;0.00;;;;;;;;4996644;28;45243;-61
2022/09/08 12:10:46;;;;;;;;;1.00;0.00;;;;;;;;4996009;28;45263;-62
2022/09/08 12:13:18;;;;;;;;;0.75;0.75;;;;;;;;4997215;28;45328;-61
2022/09/08 12:15:46;;;;;;;;;1.50;1.00;;;;;;;;4998951;28;45186;-61
2022/09/08 12:18:11;;;;;;;;;1.25;1.25;;;;;;;;4996622;28;46006;-62
2022/09/08 12:20:48;;;;;;;;;1.00;1.00;;;;;;;;4991859;28;45284;-62
2022/09/08 12:23:14;;;;;;;;;4.00;0.75;;;;;;;;4992943;28;45381;-61
2022/09/08 12:25:46;;;;;;;;;3.50;2.00;;;;;;;;4980121;28;45332;-62
2022/09/08 12:28:21;;;;;;;;;0.00;0.00;;;;;;;;4979452;28;45325;-61
2022/09/08 12:31:05;;;;;;;;;0.00;0.00;;;;;;;;4992468;28;45398;-62
2022/09/08 12:33:47;;;;;;;;;1.50;0.50;;;;;;;;4985349;28;45353;-61
2022/09/08 12:36:19;;;;;;;;;3.00;1.50;;;;;;;;4998390;28;45612;-62
2022/09/08 12:38:54;;;;;;;;;0.75;0.75;;;;;;;;4998031;28;46174;-61
2022/09/08 12:41:28;;;;;;;;;0.25;0.00;;;;;;;;5003945;28;45340;-62
2022/09/08 12:44:16;;;;;;;;;1.50;1.50;;;;;;;;5005294;28;45367;-62
2022/09/08 12:47:00;;;;;;;;;0.25;0.25;;;;;;;;4983860;28;45317;-62
2022/09/08 12:49:32;;;;;;;;;0.50;0.50;;;;;;;;5002411;28;47129;-62
2022/09/08 12:51:59;;;;;;;;;1.75;1.50;;;;;;;;5005375;28;45379;-61
2022/09/08 12:54:37;;;;;;;;;1.50;0.25;;;;;;;;5004933;28;45355;-61
2022/09/08 12:57:11;;;;;;;;;1.00;0.75;;;;;;;;5005189;28;45423;-61
2022/09/08 12:59:55;;;;;;;;;2.25;0.50;;;;;;;;4993953;28;46139;-61
2022/09/08 13:02:38;;;;;;;;;0.00;0.00;;;;;;;;5003970;28;45435;-61
2022/09/08 13:05:19;;;;;;;;;1.00;1.00;;;;;;;;5004714;28;45451;-61
2022/09/08 13:07:44;;;;;;;;;2.75;0.00;;;;;;;;5005398;28;45531;-62
2022/09/08 13:10:09;;;;;;;;;1.00;1.00;;;;;;;;5001655;28;45546;-61
2022/09/08 13:12:35;;;;;;;;;1.25;0.75;;;;;;;;5005091;28;45259;-61
2022/09/08 13:15:00;;;;;;;;;1.00;1.00;;;;;;;;5005002;28;45343;-61
2022/09/08 13:17:48;;;;;;;;;1.00;1.00;;;;;;;;5004536;28;45362;-61
2022/09/08 13:20:32;;;;;;;;;0.25;0.25;;;;;;;;5001041;28;46940;-61
2022/09/08 13:23:03;;;;;;;;;0.00;0.00;;;;;;;;5004970;28;45289;-61
2022/09/08 13:25:34;;;;;;;;;0.25;0.25;;;;;;;;5003780;28;45376;-61
2022/09/08 13:28:13;;;;;;;;;3.00;1.00;;;;;;;;5003895;28;46399;-61
2022/09/08 13:30:44;;;;;;;;;2.00;2.00;;;;;;;;5003205;28;47038;-62
2022/09/08 13:33:17;;;;;;;;;2.25;1.00;;;;;;;;5002421;28;45422;-61
2022/09/08 13:36:02;;;;;;;;;3.00;2.00;;;;;;;;5002427;28;45328;-61
2022/09/08 13:38:52;;;;;;;;;4.00;1.00;;;;;;;;5003565;28;45463;-61
2022/09/08 13:41:36;;;;;;;;;1.75;1.50;;;;;;;;5003206;28;45553;-61
2022/09/08 13:44:20;;;;;;;;;1.00;1.00;;;;;;;;5003640;28;45309;-61
2022/09/08 13:46:58;;;;;;;;;1.00;1.00;;;;;;;;4999822;28;45403;-61
2022/09/08 13:49:26;;;;;;;;;4.00;0.00;;;;;;;;4997054;28;45459;-61
2022/09/08 13:52:00;;;;;;;;;1.00;1.00;;;;;;;;4999888;28;45843;-62
2022/09/08 13:54:36;;;;;;;;;1.00;1.00;;;;;;;;4998447;28;45572;-62
2022/09/08 13:57:28;;;;;;;;;1.00;1.00;;;;;;;;4996270;28;45557;-62
2022/09/08 13:59:56;;;;;;;;;1.75;1.00;;;;;;;;4991364;28;46261;-61
2022/09/08 14:02:56;;;;;;;;;1.25;0.00;;;;;;;;5000103;28;46367;-62
2022/09/08 14:05:41;;;;;;;;;1.50;0.00;;;;;;;;4977996;28;45457;-62
2022/09/08 14:08:09;;;;;;;;;1.00;1.00;;;;;;;;4997936;28;45313;-62
2022/09/08 14:10:40;;;;;;;;;2.00;1.50;;;;;;;;4998786;28;45341;-62
2022/09/08 14:13:14;;;;;;;;;3.25;1.50;;;;;;;;4995753;28;46169;-62
2022/09/08 14:15:47;;;;;;;;;3.00;2.00;;;;;;;;4999251;28;45367;-62
2022/09/08 14:18:31;;;;;;;;;2.50;1.00;;;;;;;;5000490;28;45300;-62
2022/09/08 14:21:15;;;;;;;;;0.00;0.00;;;;;;;;4993524;28;45368;-62
2022/09/08 14:23:54;;;;;;;;;0.00;0.00;;;;;;;;4995526;28;45570;-62
2022/09/08 14:26:19;;;;;;;;;1.00;1.00;;;;;;;;4998408;28;45565;-62
2022/09/08 14:28:59;;;;;;;;;1.00;0.50;;;;;;;;5000761;28;45302;-62
2022/09/08 14:31:24;;;;;;;;;2.00;1.00;;;;;;;;4999672;28;45357;-62
2022/09/08 14:33:54;;;;;;;;;2.50;0.00;;;;;;;;4998953;28;48132;-62
2022/09/08 14:36:24;;;;;;;;;1.00;1.00;;;;;;;;4998410;28;45485;-62
2022/09/08 14:39:28;;;;;;;;;0.75;0.50;;;;;;;;5000211;28;46699;-62
2022/09/08 14:41:55;;;;;;;;;5.25;0.25;;;;;;;;4996470;28;45448;-62
2022/09/08 14:44:33;;;;;;;;;1.50;0.00;;;;;;;;4997080;28;47014;-62
2022/09/08 14:47:07;;;;;;;;;3.00;0.25;;;;;;;;4983705;28;45447;-62
2022/09/08 14:49:42;;;;;;;;;1.25;0.50;;;;;;;;4998693;28;45593;-61
2022/09/08 14:52:25;;;;;;;;;2.75;1.00;;;;;;;;4999756;28;45428;-61
2022/09/08 14:54:50;;;;;;;;;1.50;0.75;;;;;;;;4995434;28;46387;-62
2022/09/08 14:57:24;;;;;;;;;0.00;0.00;;;;;;;;5000247;28;45391;-62
2022/09/08 15:00:14;;;;;;;;;1.25;1.00;;;;;;;;4999835;28;45457;-62
2022/09/08 15:03:03;;;;;;;;;1.75;0.00;;;;;;;;4998912;28;45880;-62
2022/09/08 15:05:35;;;;;;;;;1.00;1.00;;;;;;;;4982250;28;46170;-62
2022/09/08 15:08:05;;;;;;;;;0.75;0.75;;;;;;;;4999964;28;45416;-62
2022/09/08 15:10:37;;;;;;;;;4.00;0.25;;;;;;;;4998862;28;45307;-62
2022/09/08 15:13:02;;;;;;;;;4.00;2.00;;;;;;;;4997403;28;45706;-62
2022/09/08 15:15:32;;;;;;;;;1.00;1.00;;;;;;;;4996521;28;46082;-61
2022/09/08 15:18:00;;;;;;;;;0.50;0.50;;;;;;;;4999399;28;45331;-62
2022/09/08 15:20:34;;;;;;;;;0.25;0.00;;;;;;;;4999173;28;45348;-61
2022/09/08 15:23:09;;;;;;;;;0.00;0.00;;;;;;;;4996935;28;45354;-61
2022/09/08 15:25:45;;;;;;;;;1.00;1.00;;;;;;;;4992447;28;47104;-62
2022/09/08 15:28:23;;;;;;;;;0.00;0.00;;;;;;;;4991834;28;45325;-62
2022/09/08 15:30:58;;;;;;;;;0.25;0.00;;;;;;;;4999769;28;45426;-62
2022/09/08 15:33:33;;;;;;;;;0.00;0.00;;;;;;;;4994414;28;45784;-62
2022/09/08 15:36:06;;;;;;;;;2.00;1.25;;;;;;;;4989399;28;46313;-62
2022/09/08 15:38:55;;;;;;;;;1.00;0.75;;;;;;;;4997652;28;45280;-62
2022/09/08 15:41:25;;;;;;;;;1.00;0.75;;;;;;;;4995239;28;45179;-62
2022/09/08 15:43:58;;;;;;;;;0.50;0.50;;;;;;;;4999596;28;45344;-62
2022/09/08 15:46:31;;;;;;;;;0.25;0.25;;;;;;;;4995500;28;46584;-61
2022/09/08 15:49:05;;;;;;;;;2.00;0.75;;;;;;;;4996968;28;45749;-58
2022/09/08 15:52:02;;;;;;;;;1.00;1.00;;;;;;;;4997684;28;45630;-59
2022/09/08 15:54:28;;;;;;;;;1.25;0.25;;;;;;;;4997953;28;45704;-66
2022/09/08 15:56:53;;;;;;;;;0.00;0.00;;;;;;;;4996835;28;45481;-66
2022/09/08 15:59:27;;;;;;;;;0.00;0.00;;;;;;;;4999075;28;45344;-59
2022/09/08 16:02:22;;;;;;;;;1.25;0.00;;;;;;;;4995724;28;45315;-62
2022/09/08 16:04:56;;;;;;;;;0.00;0.00;;;;;;;;4993893;28;45336;-59
2022/09/08 16:07:24;;;;;;;;;0.00;0.00;;;;;;;;4997108;28;46335;-61
2022/09/08 16:09:59;;;;;;;;;1.75;1.00;;;;;;;;4998159;28;45371;-58
2022/09/08 16:12:27;;;;;;;;;2.00;0.00;;;;;;;;4997387;28;45349;-58
2022/09/08 16:14:57;;;;;;;;;0.00;0.00;;;;;;;;4980510;28;45348;-57
2022/09/08 16:17:22;;;;;;;;;1.00;0.75;;;;;;;;4989835;28;46260;-61
2022/09/08 16:20:10;;;;;;;;;2.00;2.00;;;;;;;;4997142;28;45372;-62
2022/09/08 16:22:36;;;;;;;;;1.25;0.00;;;;;;;;4995276;28;45300;-60
2022/09/08 16:25:03;;;;;;;;;0.00;0.00;;;;;;;;4997338;28;45495;-59
2022/09/08 16:27:32;;;;;;;;;1.00;0.75;;;;;;;;4996259;28;45209;-59
2022/09/08 16:29:57;;;;;;;;;2.00;1.00;;;;;;;;4995579;28;45511;-60
2022/09/08 16:32:23;;;;;;;;;1.25;1.00;;;;;;;;4984477;28;45328;-67
2022/09/08 16:34:50;;;;;;;;;3.00;1.25;;;;;;;;4997582;28;45651;-63
2022/09/08 16:37:51;;;;;;;;;1.00;0.00;;;;;;;;4995866;28;45440;-68
2022/09/08 16:40:17;;;;;;;;;2.00;1.25;;;;;;;;4955731;28;45536;-73
2022/09/08 16:42:42;;;;;;;;;1.00;1.00;;;;;;;;4996586;28;45657;-67
2022/09/08 16:45:11;;;;;;;;;2.00;0.50;;;;;;;;4996226;28;45356;-61
2022/09/08 16:47:56;;;;;;;;;1.00;1.00;;;;;;;;4997809;28;45303;-68
2022/09/08 16:50:40;;;;;;;;;3.00;0.50;;;;;;;;4992286;28;45850;-61
2022/09/08 16:53:16;;;;;;;;;0.75;0.00;;;;;;;;4990559;28;45473;-62
2022/09/08 16:55:49;;;;;;;;;2.75;0.00;;;;;;;;4995950;28;45696;-68
2022/09/08 16:58:34;;;;;;;;;0.00;0.00;;;;;;;;4993879;28;46220;-62
2022/09/08 17:01:15;;;;;;;;;1.00;1.00;;;;;;;;4992982;28;45447;-67
2022/09/08 17:03:58;;;;;;;;;2.00;1.00;;;;;;;;4993747;28;45491;-71
2022/09/08 17:06:53;;;;;;;;;0.75;0.75;;;;;;;;4995887;28;45356;-60
2022/09/08 17:09:37;;;;;;;;;1.25;1.25;;;;;;;;4982971;28;45852;-66
2022/09/08 17:12:20;;;;;;;;;0.00;0.00;;;;;;;;4995638;28;45210;-69
2022/09/08 17:14:46;;;;;;;;;2.75;1.00;;;;;;;;4994228;28;45490;-70
2022/09/08 17:17:30;;;;;;;;;1.75;1.00;;;;;;;;4997428;28;45221;-69
2022/09/08 17:19:57;;;;;;;;;4.75;1.00;;;;;;;;4997725;28;46251;-72
2022/09/08 17:22:28;;;;;;;;;2.75;2.00;;;;;;;;4994467;28;45470;-68
2022/09/08 17:24:59;;;;;;;;;2.00;1.75;;;;;;;;4994393;28;45392;-62
2022/09/08 17:27:33;;;;;;;;;1.00;1.00;;;;;;;;4998757;28;45380;-62
2022/09/08 17:30:11;;;;;;;;;2.00;1.00;;;;;;;;5000239;28;45460;-62
2022/09/08 17:32:57;;;;;;;;;1.25;1.00;;;;;;;;4997443;28;46729;-69
2022/09/08 17:35:28;;;;;;;;;1.00;1.00;;;;;;;;5000049;28;45712;-70
2022/09/08 17:38:16;;;;;;;;;1.25;0.50;;;;;;;;5000416;28;45413;-72
2022/09/08 17:40:49;;;;;;;;;3.25;1.00;;;;;;;;4994244;28;45301;-72
2022/09/08 17:43:29;;;;;;;;;2.25;2.00;;;;;;;;4997936;28;45457;-71
2022/09/08 17:46:13;;;;;;;;;2.00;1.00;;;;;;;;4994274;28;45369;-71
2022/09/08 17:48:59;;;;;;;;;2.25;1.00;;;;;;;;4998811;28;45459;-71
2022/09/08 17:51:42;;;;;;;;;3.50;2.25;;;;;;;;4996698;28;45327;-68
2022/09/08 17:54:43;;;;;;;;;0.00;0.00;;;;;;;;4999132;28;45305;-69
2022/09/08 17:57:23;;;;;;;;;3.00;1.75;;;;;;;;4916398;28;45541;-70
2022/09/08 18:00:10;;;;;;;;;2.00;2.00;;;;;;;;4990178;28;45448;-70
2022/09/08 18:02:49;;;;;;;;;1.50;1.00;;;;;;;;4998849;28;47029;-69
2022/09/08 18:05:18;;;;;;;;;2.25;2.25;;;;;;;;4991365;28;45440;-70
2022/09/08 18:07:46;;;;;;;;;2.00;2.00;;;;;;;;5001366;28;45400;-70
2022/09/08 18:10:18;;;;;;;;;2.00;2.00;;;;;;;;4999096;28;45579;-70
2022/09/08 18:12:45;;;;;;;;;2.00;2.00;;;;;;;;4996252;28;47192;-70
2022/09/08 18:15:14;;;;;;;;;1.00;1.00;;;;;;;;4998347;28;45352;-69
2022/09/08 18:17:43;;;;;;;;;2.25;2.25;;;;;;;;5000763;28;45479;-70
2022/09/08 18:20:18;;;;;;;;;3.00;1.00;;;;;;;;4997116;28;45529;-72
2022/09/08 18:23:02;;;;;;;;;3.00;2.00;;;;;;;;5010317;28;46555;-70
2022/09/08 18:25:46;;;;;;;;;2.00;2.00;;;;;;;;5000310;28;45456;-72
2022/09/08 18:28:21;;;;;;;;;1.00;1.00;;;;;;;;4993440;28;46590;-72
2022/09/08 18:30:46;;;;;;;;;3.25;2.50;;;;;;;;4998783;28;45556;-71
2022/09/08 18:33:13;;;;;;;;;3.00;2.00;;;;;;;;4999051;28;45482;-71
2022/09/08 18:35:41;;;;;;;;;1.75;1.50;;;;;;;;4998501;28;45499;-71
2022/09/08 18:38:15;;;;;;;;;4.50;1.50;;;;;;;;4996943;28;45344;-74
2022/09/08 18:40:44;;;;;;;;;0.75;0.75;;;;;;;;4994104;28;45572;-72
2022/09/08 18:43:20;;;;;;;;;3.50;1.50;;;;;;;;4988832;28;46195;-72
2022/09/08 18:45:54;;;;;;;;;1.00;0.00;;;;;;;;4995437;28;45428;-72
2022/09/08 18:48:21;;;;;;;;;1.50;1.25;;;;;;;;4993087;28;45601;-73
2022/09/08 18:50:46;;;;;;;;;5.00;5.00;;;;;;;;4994586;28;45457;-72
2022/09/08 18:53:30;;;;;;;;;3.00;3.00;;;;;;;;4995945;28;46044;-72
2022/09/08 18:56:14;;;;;;;;;6.00;6.00;;;;;;;;4997487;28;45376;-71
2022/09/08 18:58:45;;;;;;;;;1.25;1.25;;;;;;;;4993493;28;45435;-70
2022/09/08 19:01:17;;;;;;;;;6.50;1.75;;;;;;;;4994311;28;45566;-70
2022/09/08 19:03:47;;;;;;;;;2.00;2.00;;;;;;;;4996322;28;46203;-71
2022/09/08 19:06:24;;;;;;;;;4.00;1.00;;;;;;;;4993018;28;45625;-71
2022/09/08 19:08:54;;;;;;;;;1.00;1.00;;;;;;;;4997519;28;45549;-72
2022/09/08 19:11:34;;;;;;;;;4.75;2.00;;;;;;;;4991412;28;45794;-71
2022/09/08 19:14:18;;;;;;;;;1.00;1.00;;;;;;;;4987510;28;45503;-71
2022/09/08 19:16:52;;;;;;;;;3.00;1.00;;;;;;;;4998788;28;45300;-72
2022/09/08 19:19:17;;;;;;;;;1.25;1.25;;;;;;;;4997274;28;45337;-70
2022/09/08 19:21:44;;;;;;;;;1.00;1.00;;;;;;;;4995133;28;45386;-70
2022/09/08 19:24:21;;;;;;;;;2.00;2.00;;;;;;;;4988801;28;45510;-69
2022/09/08 19:26:49;;;;;;;;;3.00;2.00;;;;;;;;4991330;28;45822;-68
2022/09/08 19:29:35;;;;;;;;;3.00;1.33;;;;;;;;4982912;28;45456;-68
2022/09/08 19:32:05;;;;;;;;;2.25;1.00;;;;;;;;4992568;28;45839;-69
2022/09/08 19:34:30;;;;;;;;;4.00;2.50;;;;;;;;4994258;28;47211;-69
2022/09/08 19:37:00;;;;;;;;;1.00;1.00;;;;;;;;4997603;28;45629;-69
2022/09/08 19:39:25;;;;;;;;;3.00;1.00;;;;;;;;4982692;28;45373;-70
2022/09/08 19:41:50;;;;;;;;;3.60;1.00;;;;;;;;4992052;28;45499;-70
2022/09/08 19:44:25;;;;;;;;;1.75;1.75;;;;;;;;4993345;28;46066;-70
2022/09/08 19:46:56;;;;;;;;;2.25;2.25;;;;;;;;4997406;28;45385;-71
2022/09/08 19:49:43;;;;;;;;;1.75;1.75;;;;;;;;4996134;28;45723;-71
2022/09/08 19:52:10;;;;;;;;;2.00;2.00;;;;;;;;4993039;28;45518;-71